Vihari Weather



Vihari's Current Weather

Temprature 30.36o clear sky

clear sky

Rain: 0 %

Min Temprature30.36o
Max Temprature30.36o
Humidity49
Wind Speed0.39 m/h
Sun Rise06:00:51
Sun Set18:03:15
Current Time: 26-Sep-2022 08:52:58
Lat/Lon: 30.0333, 72.35




Vihari's Geo Location



Vihari's Weather Forecast

Time Overall Temp Min Temp Max Temp Humidity Wind Speed Rain
26-Sep-2022 (Mon)
11:00:00 clear sky 30.070 30.070 34.530 52 0.8 m/h 0 %
14:00:00 clear sky 34.200 34.200 37.380 39 2.21 m/h 0 %
17:00:00 clear sky 35.910 35.910 35.910 31 3.68 m/h 0 %
20:00:00 clear sky 29.230 29.230 29.230 47 2.5 m/h 0 %
23:00:00 clear sky 27.780 27.780 27.780 51 1.45 m/h 0 %
27-Sep-2022 (Tue)
02:00:00 clear sky 26.840 26.840 26.840 55 0.89 m/h 0 %
05:00:00 clear sky 25.890 25.890 25.890 57 1.63 m/h 0 %
08:00:00 clear sky 30.340 30.340 30.340 38 2.76 m/h 0 %
11:00:00 clear sky 36.680 36.680 36.680 23 5.24 m/h 0 %
14:00:00 clear sky 38.670 38.670 38.670 19 5.98 m/h 0 %
17:00:00 clear sky 36.700 36.700 36.700 22 5.27 m/h 0 %
20:00:00 clear sky 30.470 30.470 30.470 33 3.63 m/h 0 %
23:00:00 clear sky 28.480 28.480 28.480 37 3.62 m/h 0 %
28-Sep-2022 (Wed)
02:00:00 clear sky 27.090 27.090 27.090 39 3.72 m/h 0 %
05:00:00 clear sky 25.850 25.850 25.850 39 3.14 m/h 0 %
08:00:00 clear sky 29.660 29.660 29.660 36 4.68 m/h 0 %
11:00:00 clear sky 36.640 36.640 36.640 25 5.89 m/h 0 %
14:00:00 clear sky 38.300 38.300 38.300 21 5.26 m/h 0 %
17:00:00 clear sky 36.450 36.450 36.450 23 4.13 m/h 0 %
20:00:00 clear sky 30.260 30.260 30.260 33 3.56 m/h 0 %
23:00:00 clear sky 28.150 28.150 28.150 33 3.77 m/h 0 %
29-Sep-2022 (Thu)
02:00:00 clear sky 26.080 26.080 26.080 29 3.6 m/h 0 %
05:00:00 clear sky 24.890 24.890 24.890 34 3.49 m/h 0 %
08:00:00 clear sky 29.200 29.200 29.200 39 4.39 m/h 0 %
11:00:00 clear sky 36.570 36.570 36.570 24 5.7 m/h 0 %
14:00:00 clear sky 38.070 38.070 38.070 20 5.24 m/h 0 %
17:00:00 clear sky 36.150 36.150 36.150 22 3.93 m/h 0 %
20:00:00 clear sky 29.980 29.980 29.980 30 3.3 m/h 0 %
23:00:00 clear sky 27.490 27.490 27.490 33 3.49 m/h 0 %
30-Sep-2022 (Fri)
02:00:00 clear sky 25.580 25.580 25.580 32 3.59 m/h 0 %
05:00:00 clear sky 24.600 24.600 24.600 37 3.4 m/h 0 %
08:00:00 clear sky 29.350 29.350 29.350 36 4.52 m/h 0 %
11:00:00 clear sky 36.510 36.510 36.510 24 5.97 m/h 0 %
14:00:00 clear sky 38.520 38.520 38.520 18 5.64 m/h 0 %
17:00:00 clear sky 36.520 36.520 36.520 20 4.26 m/h 0 %
20:00:00 clear sky 29.810 29.810 29.810 31 3.66 m/h 0 %
23:00:00 clear sky 27.860 27.860 27.860 35 3.66 m/h 0 %
01-Oct-2022 (Sat)
02:00:00 clear sky 26.270 26.270 26.270 43 3.49 m/h 0 %
05:00:00 clear sky 25.170 25.170 25.170 40 3.57 m/h 0 %
08:00:00 clear sky 29.750 29.750 29.750 37 5.35 m/h 0 %

Famous Cities (61)